Marine, Minnesota
Current Conditions -  °F | °C
As of 12:35 PM on Wednesday 26 Nov 2014 (Local Time) from KRNH Reporting Station
Light Snow Light Snow  
Wind Chill: 20°   Ceiling: 2300
Heat Index: 25°   Visibility: 4mi
Dew Point: 21°   Wind: 5mph
Humidity: 83%   Direction: 360°N
Pressure: 30.17"   Gusts: NA
Location:  45.1574°N, 92.7623°W
Report Text: KRNH 261835Z AUTO 36004KT 4SM -SN SCT010 OVC023 M04/M06 A3017 RMK AO2 T10371062
Loading
Personal Weather Stations






























Interactive Weather Map New forecast layout! Learn more

10-Day Weather Forecast

Advertisements
Track Severe Weather on mobile